Time;durP1;ratioP1;P1;durP2;ratioP2;P2;SDS_P1;SDS_P2;PMS_P1;PMS_P2;Temp;Humidity;BMP_temperature;BMP_pressure;BME280_temperature;BME280_humidity;BME280_pressure;Samples;Min_cycle;Max_cycle;Signal;HPM_P1;HPM_P2
2023/03/31 00:00:45;;;;;;;5.28;1.85;;;11.20;99.90;;;;;;2087357;28;20043;-79
2023/03/31 00:01:46;;;;;;;4.70;1.90;;;11.30;99.90;;;;;;2087154;28;20114;-79
2023/03/31 00:02:46;;;;;;;4.50;1.90;;;11.20;99.90;;;;;;2095523;28;20024;-78
2023/03/31 00:03:47;;;;;;;4.28;1.98;;;11.30;99.90;;;;;;2088510;28;20052;-78
2023/03/31 00:04:58;;;;;;;6.28;2.13;;;11.30;99.90;;;;;;2086381;28;20024;-79
2023/03/31 00:06:00;;;;;;;4.53;1.98;;;11.30;99.90;;;;;;2084711;28;20033;-77
2023/03/31 00:07:00;;;;;;;5.55;1.80;;;11.20;99.90;;;;;;2086163;28;20032;-77
2023/03/31 00:08:01;;;;;;;4.07;1.70;;;11.20;99.90;;;;;;2094634;28;20041;-79
2023/03/31 00:09:01;;;;;;;6.35;1.90;;;11.20;99.90;;;;;;2094663;28;20028;-78
2023/03/31 00:10:05;;;;;;;4.43;1.75;;;11.30;99.90;;;;;;2089323;28;20050;-77
2023/03/31 00:11:06;;;;;;;6.82;2.20;;;11.20;99.90;;;;;;2095886;28;20471;-78
2023/03/31 00:12:07;;;;;;;9.00;3.65;;;11.30;99.90;;;;;;2091553;28;20123;-79
2023/03/31 00:13:07;;;;;;;4.43;1.65;;;11.20;99.90;;;;;;2086690;28;20037;-78
2023/03/31 00:14:08;;;;;;;4.78;1.88;;;11.30;99.90;;;;;;2079509;28;20041;-78
2023/03/31 00:15:09;;;;;;;4.18;1.70;;;11.30;99.90;;;;;;2086739;28;20034;-78
2023/03/31 00:16:09;;;;;;;4.57;1.85;;;11.20;99.90;;;;;;2076199;28;20034;-78
2023/03/31 00:17:11;;;;;;;7.43;2.00;;;11.30;99.90;;;;;;2076660;28;20031;-80
2023/03/31 00:18:11;;;;;;;6.22;2.03;;;11.30;99.90;;;;;;2083549;28;20170;-76
2023/03/31 00:19:20;;;;;;;5.63;1.85;;;11.30;99.90;;;;;;2097671;28;20307;-77
2023/03/31 00:20:21;;;;;;;5.05;2.00;;;11.30;99.90;;;;;;2090371;28;20507;-79
2023/03/31 00:21:32;;;;;;;4.40;1.70;;;11.30;99.90;;;;;;2097509;28;20228;-78
2023/03/31 00:22:33;;;;;;;4.22;1.63;;;11.20;99.90;;;;;;2087298;28;20040;-79
2023/03/31 00:23:34;;;;;;;4.88;1.95;;;11.30;99.90;;;;;;2087428;28;20088;-80
2023/03/31 00:24:35;;;;;;;6.65;1.90;;;11.30;99.90;;;;;;2090268;28;20506;-78
2023/03/31 00:25:39;;;;;;;5.93;1.95;;;11.30;99.90;;;;;;2089361;28;20036;-78
2023/03/31 00:26:40;;;;;;;4.90;1.90;;;11.30;99.90;;;;;;2087309;28;20468;-78
2023/03/31 00:27:43;;;;;;;4.50;1.60;;;11.30;99.90;;;;;;2087585;28;20082;-79
2023/03/31 00:28:43;;;;;;;7.18;2.00;;;11.30;99.90;;;;;;2097795;28;20028;-77
2023/03/31 00:29:44;;;;;;;3.88;1.92;;;11.30;99.90;;;;;;2086143;28;20101;-77
2023/03/31 00:30:46;;;;;;;6.18;1.90;;;11.30;99.90;;;;;;2089429;28;20028;-78
2023/03/31 00:31:46;;;;;;;5.75;2.08;;;11.30;99.90;;;;;;2092726;28;20032;-79
2023/03/31 00:32:47;;;;;;;3.95;1.85;;;11.30;99.90;;;;;;2090972;28;20024;-79
2023/03/31 00:33:48;;;;;;;5.20;1.90;;;11.40;99.90;;;;;;2088139;28;20453;-78
2023/03/31 00:34:48;;;;;;;3.25;1.70;;;11.40;99.90;;;;;;2096998;28;20439;-77
2023/03/31 00:35:51;;;;;;;3.80;1.80;;;11.40;99.90;;;;;;2088146;28;20031;-80
2023/03/31 00:36:55;;;;;;;7.65;1.92;;;11.30;99.90;;;;;;2088967;28;20037;-78
2023/03/31 00:37:56;;;;;;;3.95;1.83;;;11.30;99.90;;;;;;2090967;28;20063;-77
2023/03/31 00:38:59;;;;;;;7.22;1.90;;;11.30;99.90;;;;;;2093124;28;20630;-76
2023/03/31 00:40:00;;;;;;;9.52;2.10;;;11.30;99.90;;;;;;2076237;28;20044;-78
2023/03/31 00:41:02;;;;;;;3.92;1.75;;;11.30;99.90;;;;;;2078796;28;20022;-76
2023/03/31 00:42:03;;;;;;;5.65;1.90;;;11.30;99.90;;;;;;2086205;28;20084;-77
2023/03/31 00:43:23;;;;;;;6.88;2.08;;;11.30;99.90;;;;;;2077983;28;20029;-76
2023/03/31 00:44:24;;;;;;;4.05;1.83;;;11.30;99.90;;;;;;2085516;28;20147;-80
2023/03/31 00:45:28;;;;;;;5.50;1.95;;;11.30;99.90;;;;;;2086140;28;20143;-77
2023/03/31 00:46:48;;;;;;;7.97;2.20;;;11.30;99.90;;;;;;2077713;28;20045;-78
2023/03/31 00:48:04;;;;;;;6.60;2.10;;;11.30;99.90;;;;;;2080224;28;20094;-80
2023/03/31 00:49:13;;;;;;;5.65;1.80;;;11.30;99.90;;;;;;2086051;28;20024;-80
2023/03/31 00:50:20;;;;;;;5.30;1.73;;;11.30;99.90;;;;;;2088863;28;20032;-76
2023/03/31 00:51:22;;;;;;;6.22;2.13;;;11.30;99.90;;;;;;2079241;28;20049;-78
2023/03/31 00:52:36;;;;;;;6.22;1.90;;;11.30;99.90;;;;;;2079805;28;20570;-77
2023/03/31 00:53:36;;;;;;;6.68;2.13;;;11.30;99.90;;;;;;2085800;28;20039;-78
2023/03/31 00:54:39;;;;;;;6.75;2.28;;;11.30;99.90;;;;;;2101604;28;20099;-78
2023/03/31 00:55:47;;;;;;;5.13;2.13;;;11.30;99.90;;;;;;2094645;28;20036;-79
2023/03/31 00:56:51;;;;;;;4.97;2.03;;;11.30;99.90;;;;;;2092164;28;20028;-79
2023/03/31 00:57:54;;;;;;;5.50;2.22;;;11.30;99.90;;;;;;2088663;28;20036;-78
2023/03/31 00:58:58;;;;;;;6.00;2.10;;;11.30;99.90;;;;;;2082012;28;20029;-78
2023/03/31 01:00:17;;;;;;;6.63;2.20;;;11.30;99.90;;;;;;2090746;28;20043;-78
2023/03/31 01:01:23;;;;;;;5.60;1.98;;;11.30;99.90;;;;;;2081380;28;20021;-80
2023/03/31 01:02:24;;;;;;;7.53;1.90;;;11.30;99.90;;;;;;2074863;28;20021;-78
2023/03/31 01:03:25;;;;;;;4.70;1.90;;;11.30;99.90;;;;;;2080600;28;20096;-77
2023/03/31 01:04:27;;;;;;;6.97;1.80;;;11.30;99.90;;;;;;2090192;28;20029;-77
2023/03/31 01:05:39;;;;;;;4.03;1.90;;;11.30;99.90;;;;;;2100960;28;20063;-77
2023/03/31 01:06:56;;;;;;;5.75;2.05;;;11.30;99.90;;;;;;2092425;28;20032;-78
2023/03/31 01:07:58;;;;;;;9.02;2.20;;;11.30;99.90;;;;;;2095108;28;20183;-78
2023/03/31 01:09:06;;;;;;;4.95;2.08;;;11.30;99.90;;;;;;2095965;28;20130;-78
2023/03/31 01:10:07;;;;;;;6.47;1.80;;;11.30;99.90;;;;;;2083625;28;20503;-78
2023/03/31 01:11:11;;;;;;;5.00;2.00;;;11.30;99.90;;;;;;2090135;28;20036;-79
2023/03/31 01:12:15;;;;;;;3.80;1.73;;;11.30;99.90;;;;;;2090607;28;20029;-79
2023/03/31 01:13:17;;;;;;;4.75;1.70;;;11.30;99.90;;;;;;2098096;28;20581;-79
2023/03/31 01:14:17;;;;;;;7.45;2.03;;;11.30;99.90;;;;;;2094217;28;20040;-78
2023/03/31 01:15:18;;;;;;;5.07;1.77;;;11.30;99.90;;;;;;2099068;28;20059;-78
2023/03/31 01:16:19;;;;;;;6.07;1.85;;;11.30;99.90;;;;;;2096123;28;20024;-78
2023/03/31 01:17:21;;;;;;;5.97;2.10;;;11.30;99.90;;;;;;2090169;28;20741;-78
2023/03/31 01:18:22;;;;;;;5.32;2.13;;;11.30;99.90;;;;;;2085883;28;20039;-79
2023/03/31 01:19:40;;;;;;;7.82;2.08;;;11.30;99.90;;;;;;2094220;28;20037;-77
2023/03/31 01:21:17;;;;;;;6.25;2.03;;;11.40;99.90;;;;;;2099010;28;20552;-78
2023/03/31 01:22:38;;;;;;;4.90;1.98;;;11.40;99.90;;;;;;2093428;28;20031;-79
2023/03/31 01:24:01;;;;;;;4.93;1.85;;;11.30;99.90;;;;;;2099082;28;20039;-80
2023/03/31 01:25:29;;;;;;;5.22;1.80;;;11.30;99.90;;;;;;2083480;28;20485;-79
2023/03/31 01:26:42;;;;;;;4.95;1.80;;;11.30;99.90;;;;;;2085318;28;20043;-78
2023/03/31 01:27:42;;;;;;;5.32;1.95;;;11.30;99.90;;;;;;2091747;28;20044;-79
2023/03/31 01:28:58;;;;;;;4.72;2.17;;;11.30;99.90;;;;;;2099177;28;20308;-77
2023/03/31 01:30:38;;;;;;;5.50;1.92;;;11.20;99.90;;;;;;2083001;28;20032;-78
2023/03/31 01:32:11;;;;;;;6.72;1.75;;;11.30;99.90;;;;;;2095546;28;20067;-77
2023/03/31 01:33:24;;;;;;;4.85;1.70;;;11.20;99.90;;;;;;2095345;28;20024;-77
2023/03/31 01:34:49;;;;;;;4.60;1.98;;;11.20;99.90;;;;;;2082751;28;20048;-80
2023/03/31 01:36:26;;;;;;;6.10;1.95;;;11.20;99.90;;;;;;2085056;28;20035;-78
2023/03/31 01:37:32;;;;;;;4.90;1.90;;;11.20;99.90;;;;;;2086617;28;20399;-78
2023/03/31 01:39:12;;;;;;;5.13;1.63;;;11.10;99.90;;;;;;2086438;28;20075;-76
2023/03/31 01:40:33;;;;;;;7.15;2.03;;;11.10;99.90;;;;;;2088393;28;20570;-78
2023/03/31 01:41:53;;;;;;;6.25;2.03;;;11.10;99.90;;;;;;2087046;28;20125;-77
2023/03/31 01:43:04;;;;;;;3.55;1.48;;;11.10;99.90;;;;;;2090515;28;20055;-77
2023/03/31 01:44:42;;;;;;;6.38;2.03;;;11.10;99.90;;;;;;2096898;28;20037;-78
2023/03/31 01:46:12;;;;;;;5.50;2.00;;;11.10;99.90;;;;;;2085054;28;20465;-77
2023/03/31 01:47:24;;;;;;;6.03;1.80;;;11.10;99.90;;;;;;2097917;28;20499;-76
2023/03/31 01:48:36;;;;;;;8.77;1.90;;;11.10;99.90;;;;;;2083733;28;20040;-78
2023/03/31 01:49:51;;;;;;;6.50;1.98;;;11.00;99.90;;;;;;2081123;28;20089;-78
2023/03/31 01:50:56;;;;;;;5.90;1.80;;;11.00;99.90;;;;;;2088646;28;20394;-78
2023/03/31 01:52:26;;;;;;;4.90;2.05;;;11.00;99.90;;;;;;2092553;28;20717;-78
2023/03/31 01:53:52;;;;;;;5.97;1.98;;;11.00;99.90;;;;;;2071343;28;20052;-77
2023/03/31 01:55:00;;;;;;;4.93;1.95;;;11.00;99.90;;;;;;2091171;28;20332;-80
2023/03/31 01:56:17;;;;;;;5.82;2.05;;;11.00;99.90;;;;;;2101539;28;20067;-78
2023/03/31 01:57:42;;;;;;;5.22;1.80;;;11.00;99.90;;;;;;2101609;28;20386;-77
2023/03/31 01:58:55;;;;;;;6.93;1.85;;;11.00;99.90;;;;;;2094138;28;20056;-79
2023/03/31 02:00:08;;;;;;;6.10;1.90;;;11.00;99.90;;;;;;2084898;28;20040;-77
2023/03/31 02:01:22;;;;;;;4.78;1.70;;;11.00;99.90;;;;;;2095176;28;20044;-77
2023/03/31 02:02:28;;;;;;;5.10;1.90;;;10.90;99.90;;;;;;2101470;28;20749;-78
2023/03/31 02:03:36;;;;;;;7.10;2.03;;;10.90;99.90;;;;;;2101587;28;20265;-79
2023/03/31 02:04:41;;;;;;;6.68;1.95;;;11.00;99.90;;;;;;2087869;28;20098;-76
2023/03/31 02:05:51;;;;;;;7.88;1.98;;;11.00;99.90;;;;;;2074717;28;20685;-77
2023/03/31 02:06:59;;;;;;;6.18;1.92;;;10.90;99.90;;;;;;2092024;28;20066;-78
2023/03/31 02:08:16;;;;;;;7.43;1.90;;;10.90;99.90;;;;;;2099586;28;20043;-78
2023/03/31 02:09:21;;;;;;;5.35;1.73;;;10.90;99.90;;;;;;2095595;28;20296;-78
2023/03/31 02:10:24;;;;;;;6.47;1.90;;;10.90;99.90;;;;;;2080100;28;20091;-79
2023/03/31 02:11:28;;;;;;;8.40;1.92;;;10.90;99.90;;;;;;2079954;28;20459;-79
2023/03/31 02:12:31;;;;;;;8.25;2.10;;;10.80;99.90;;;;;;2084563;28;20382;-78
2023/03/31 02:13:36;;;;;;;4.82;1.80;;;10.80;99.90;;;;;;2079787;28;20492;-79
2023/03/31 02:14:42;;;;;;;4.85;1.80;;;10.80;99.90;;;;;;2083806;28;20412;-78
2023/03/31 02:15:50;;;;;;;6.38;2.03;;;10.70;99.90;;;;;;2078055;28;20136;-78
2023/03/31 02:16:57;;;;;;;8.05;1.83;;;10.70;99.90;;;;;;2080769;28;20064;-70
2023/03/31 02:18:02;;;;;;;4.07;2.10;;;10.70;99.90;;;;;;2094807;28;20044;-71
2023/03/31 02:19:04;;;;;;;6.28;2.10;;;10.70;99.90;;;;;;2094421;28;20083;-69
2023/03/31 02:20:11;;;;;;;7.55;2.00;;;10.60;99.90;;;;;;2079367;28;20021;-71
2023/03/31 02:21:13;;;;;;;6.55;2.03;;;10.70;99.90;;;;;;2088730;28;20021;-70
2023/03/31 02:22:15;;;;;;;7.85;2.65;;;10.70;99.90;;;;;;2096456;28;20030;-71
2023/03/31 02:23:21;;;;;;;6.72;2.08;;;10.60;99.90;;;;;;2096563;28;20059;-70
2023/03/31 02:24:26;;;;;;;4.35;1.80;;;10.60;99.90;;;;;;2087330;28;20025;-71
2023/03/31 02:25:34;;;;;;;4.07;1.65;;;10.60;99.90;;;;;;2079739;28;20461;-71
2023/03/31 02:26:43;;;;;;;5.60;1.80;;;10.60;99.90;;;;;;2088774;28;20045;-71
2023/03/31 02:27:56;;;;;;;4.10;1.65;;;10.60;99.90;;;;;;2096639;28;20032;-71
2023/03/31 02:28:57;;;;;;;5.13;1.80;;;10.50;99.90;;;;;;2087400;28;20488;-69
2023/03/31 02:29:58;;;;;;;7.93;2.03;;;10.50;99.90;;;;;;2087615;28;20097;-70
2023/03/31 02:31:09;;;;;;;3.75;1.70;;;10.50;99.90;;;;;;2081883;28;20025;-70
2023/03/31 02:32:31;;;;;;;3.95;1.88;;;10.40;99.90;;;;;;2080548;28;20162;-71
2023/03/31 02:33:32;;;;;;;3.20;1.67;;;10.40;99.90;;;;;;2085063;28;20036;-70
2023/03/31 02:34:33;;;;;;;3.97;1.83;;;10.40;99.90;;;;;;2081386;28;20532;-69
2023/03/31 02:35:35;;;;;;;2.80;1.75;;;10.30;99.90;;;;;;2085889;28;20048;-69
2023/03/31 02:36:36;;;;;;;3.53;1.80;;;10.30;99.90;;;;;;2088682;28;20567;-70
2023/03/31 02:37:39;;;;;;;3.78;1.80;;;10.20;99.90;;;;;;2086127;28;20047;-70
2023/03/31 02:38:53;;;;;;;3.00;1.70;;;10.20;99.90;;;;;;2089231;28;20039;-71
2023/03/31 02:39:57;;;;;;;3.90;1.70;;;10.20;99.90;;;;;;2088709;28;20413;-71
2023/03/31 02:40:58;;;;;;;5.35;1.95;;;10.10;99.90;;;;;;2086723;28;20058;-71
2023/03/31 02:42:05;;;;;;;3.70;1.88;;;10.10;99.90;;;;;;2074282;28;20131;-71
2023/03/31 02:43:06;;;;;;;2.95;1.70;;;10.00;99.90;;;;;;2087198;28;20110;-70
2023/03/31 02:44:07;;;;;;;3.05;1.77;;;10.00;99.90;;;;;;2090989;28;20102;-70
2023/03/31 02:45:37;;;;;;;3.83;1.70;;;9.90;99.90;;;;;;2078495;28;20029;-70
2023/03/31 02:46:39;;;;;;;2.45;1.58;;;9.90;99.90;;;;;;2089441;28;20035;-70
2023/03/31 02:47:39;;;;;;;3.38;1.80;;;9.80;99.90;;;;;;2093462;28;20032;-69
2023/03/31 02:48:49;;;;;;;4.50;1.80;;;9.80;99.90;;;;;;2086056;28;20036;-69
2023/03/31 02:49:53;;;;;;;4.25;1.80;;;9.70;99.90;;;;;;2087006;28;20119;-69
2023/03/31 02:51:18;;;;;;;2.80;1.52;;;9.70;99.90;;;;;;2086134;28;20064;-69
2023/03/31 02:52:36;;;;;;;2.90;1.70;;;9.60;99.90;;;;;;2084230;28;20021;-69
2023/03/31 02:54:08;;;;;;;3.17;1.77;;;9.60;99.90;;;;;;2073688;28;20084;-70
2023/03/31 02:55:46;;;;;;;3.75;1.65;;;9.50;99.90;;;;;;2060705;28;20329;-70
2023/03/31 02:57:28;;;;;;;2.17;1.60;;;9.50;99.90;;;;;;2084767;28;20336;-70
2023/03/31 02:59:09;;;;;;;3.35;1.70;;;9.40;99.90;;;;;;2044834;28;20027;-70
2023/03/31 03:00:52;;;;;;;3.25;2.10;;;9.40;99.90;;;;;;2052459;28;20283;-70
2023/03/31 03:02:12;;;;;;;4.07;1.70;;;9.40;99.90;;;;;;2078099;28;20036;-70
2023/03/31 03:03:48;;;;;;;3.17;1.92;;;9.40;99.90;;;;;;2087213;28;20520;-70
2023/03/31 03:04:49;;;;;;;4.03;2.17;;;9.30;99.90;;;;;;2057367;28;20069;-70
2023/03/31 03:06:17;;;;;;;3.13;2.00;;;9.30;99.90;;;;;;2078561;28;20032;-71
2023/03/31 03:07:55;;;;;;;3.45;2.40;;;9.30;99.90;;;;;;2081257;28;20489;-71
2023/03/31 03:09:21;;;;;;;4.50;2.00;;;9.30;99.90;;;;;;2087862;28;20021;-70
2023/03/31 03:10:58;;;;;;;3.00;2.10;;;9.30;99.90;;;;;;2085053;28;20020;-71
2023/03/31 03:12:21;;;;;;;3.55;2.08;;;9.30;99.90;;;;;;2091805;28;20065;-70
2023/03/31 03:13:33;;;;;;;5.40;2.30;;;9.30;99.90;;;;;;2069405;28;20316;-69
2023/03/31 03:14:43;;;;;;;5.32;2.17;;;9.30;99.90;;;;;;2086230;28;20246;-69
2023/03/31 03:15:48;;;;;;;5.03;2.38;;;9.40;99.90;;;;;;2088575;28;20025;-69
2023/03/31 03:16:56;;;;;;;4.43;2.05;;;9.40;99.90;;;;;;2094990;28;20499;-69
2023/03/31 03:17:57;;;;;;;5.18;2.30;;;9.40;99.90;;;;;;2095040;28;20339;-69
2023/03/31 03:19:05;;;;;;;5.30;2.20;;;9.40;99.90;;;;;;2094811;28;20036;-71
2023/03/31 03:20:08;;;;;;;5.05;2.35;;;9.40;99.90;;;;;;2096796;28;20598;-70
2023/03/31 03:21:08;;;;;;;5.13;2.30;;;9.50;99.90;;;;;;2089152;28;20032;-69
2023/03/31 03:22:09;;;;;;;5.63;2.25;;;9.50;99.90;;;;;;2077906;28;20025;-69
2023/03/31 03:23:10;;;;;;;4.15;2.20;;;9.50;99.90;;;;;;2087208;28;20032;-69
2023/03/31 03:24:11;;;;;;;5.65;2.25;;;9.50;99.90;;;;;;2088944;28;20025;-69
2023/03/31 03:25:13;;;;;;;4.05;2.13;;;9.50;99.90;;;;;;2082779;28;20041;-70
2023/03/31 03:26:15;;;;;;;5.65;2.28;;;9.60;99.90;;;;;;2086081;28;20043;-70
2023/03/31 03:27:15;;;;;;;3.97;2.10;;;9.60;99.90;;;;;;2082707;28;20025;-69
2023/03/31 03:28:16;;;;;;;3.70;2.20;;;9.60;99.90;;;;;;2086416;28;20563;-70
2023/03/31 03:29:16;;;;;;;3.63;1.90;;;9.60;99.90;;;;;;2095425;28;20115;-71
2023/03/31 03:30:17;;;;;;;3.60;2.08;;;9.60;99.90;;;;;;2095035;28;20066;-69
2023/03/31 03:31:19;;;;;;;2.92;1.80;;;9.70;99.90;;;;;;2093367;28;20028;-69
2023/03/31 03:32:20;;;;;;;3.90;1.80;;;9.70;99.90;;;;;;2091500;28;20423;-70
2023/03/31 03:33:23;;;;;;;4.40;1.80;;;9.70;99.90;;;;;;2096186;28;20114;-69
2023/03/31 03:34:24;;;;;;;6.35;2.10;;;9.70;99.90;;;;;;2095921;28;20027;-70
2023/03/31 03:35:25;;;;;;;3.50;1.80;;;9.70;99.90;;;;;;2097787;28;20119;-70
2023/03/31 03:36:25;;;;;;;3.92;1.77;;;9.70;99.90;;;;;;2089201;28;20025;-71
2023/03/31 03:37:26;;;;;;;4.07;1.70;;;9.80;99.90;;;;;;2091890;28;20450;-70
2023/03/31 03:38:27;;;;;;;4.63;1.90;;;9.80;99.90;;;;;;2086000;28;20029;-70
2023/03/31 03:39:27;;;;;;;4.15;1.85;;;9.80;99.90;;;;;;2085840;28;20209;-69
2023/03/31 03:40:28;;;;;;;3.83;1.90;;;9.80;99.90;;;;;;2098044;28;20090;-70
2023/03/31 03:41:30;;;;;;;2.75;1.90;;;9.90;99.90;;;;;;2096674;28;20050;-70
2023/03/31 03:42:32;;;;;;;3.17;1.80;;;9.90;99.90;;;;;;2096137;28;20034;-70
2023/03/31 03:43:32;;;;;;;3.47;1.80;;;9.90;99.90;;;;;;2096011;28;20075;-70
2023/03/31 03:44:33;;;;;;;4.97;2.58;;;9.90;99.90;;;;;;2096673;28;20099;-70
2023/03/31 03:45:33;;;;;;;5.40;2.70;;;9.90;99.90;;;;;;2095049;28;21330;-70
2023/03/31 03:46:34;;;;;;;5.25;2.90;;;9.90;99.90;;;;;;2095337;28;20588;-70
2023/03/31 03:47:35;;;;;;;5.47;3.00;;;9.90;99.90;;;;;;2094737;28;20487;-69
2023/03/31 03:48:35;;;;;;;7.60;2.97;;;9.90;99.90;;;;;;2096921;28;20391;-70
2023/03/31 03:49:36;;;;;;;4.07;2.42;;;10.00;99.90;;;;;;2096072;28;20036;-70
2023/03/31 03:50:37;;;;;;;5.55;2.50;;;10.00;99.90;;;;;;2080432;28;20535;-69
2023/03/31 03:51:37;;;;;;;5.38;2.55;;;10.00;99.90;;;;;;2089505;28;20051;-76
2023/03/31 03:52:38;;;;;;;8.07;2.53;;;10.00;99.90;;;;;;2088114;28;20038;-68
2023/03/31 03:53:39;;;;;;;3.85;2.30;;;10.10;99.90;;;;;;2090132;28;20036;-69
2023/03/31 03:54:39;;;;;;;4.07;2.35;;;10.10;99.90;;;;;;2094706;28;20036;-70
2023/03/31 03:55:40;;;;;;;6.40;2.53;;;10.10;99.90;;;;;;2094825;28;20114;-69
2023/03/31 03:56:41;;;;;;;4.55;2.30;;;10.10;99.90;;;;;;2085405;28;20041;-69
2023/03/31 03:57:41;;;;;;;4.28;2.38;;;10.10;99.90;;;;;;2080426;28;20420;-70
2023/03/31 03:58:42;;;;;;;4.07;2.28;;;10.10;99.90;;;;;;2079070;28;20664;-69
2023/03/31 03:59:42;;;;;;;3.95;2.38;;;10.10;99.90;;;;;;2086845;28;20024;-70
2023/03/31 04:00:44;;;;;;;5.43;2.30;;;10.20;99.90;;;;;;2086950;28;20316;-70
2023/03/31 04:01:44;;;;;;;6.65;2.63;;;10.20;99.90;;;;;;2092273;28;20043;-69
2023/03/31 04:02:45;;;;;;;5.97;2.30;;;10.20;99.90;;;;;;2094703;28;20532;-70
2023/03/31 04:03:46;;;;;;;6.22;2.70;;;10.20;99.90;;;;;;2090905;28;20120;-69
2023/03/31 04:04:46;;;;;;;5.57;2.42;;;10.20;99.90;;;;;;2095022;28;20033;-70
2023/03/31 04:05:50;;;;;;;8.00;2.83;;;10.20;99.90;;;;;;2094971;28;20039;-70
2023/03/31 04:06:51;;;;;;;4.82;2.50;;;10.20;99.90;;;;;;2094446;28;20033;-70
2023/03/31 04:07:51;;;;;;;4.60;2.40;;;10.20;99.90;;;;;;2097306;28;20055;-71
2023/03/31 04:08:52;;;;;;;4.40;2.35;;;10.20;99.90;;;;;;2091949;28;20028;-70
2023/03/31 04:09:52;;;;;;;4.20;2.40;;;10.20;99.90;;;;;;2094205;28;20490;-71
2023/03/31 04:10:53;;;;;;;6.00;2.35;;;10.20;99.90;;;;;;2087645;28;20027;-71
2023/03/31 04:11:54;;;;;;;5.00;2.60;;;10.20;99.90;;;;;;2082497;28;20498;-71
2023/03/31 04:12:54;;;;;;;5.88;2.45;;;10.20;99.90;;;;;;2094386;28;20029;-70
2023/03/31 04:13:55;;;;;;;4.75;2.63;;;10.20;99.90;;;;;;2094752;28;20324;-71
2023/03/31 04:14:55;;;;;;;4.90;2.58;;;10.20;99.90;;;;;;2085645;28;20033;-69
2023/03/31 04:15:56;;;;;;;4.82;2.50;;;10.20;99.90;;;;;;2085421;28;20032;-69
2023/03/31 04:16:57;;;;;;;6.72;2.28;;;10.20;99.90;;;;;;2097493;28;20575;-69
2023/03/31 04:17:57;;;;;;;6.13;2.70;;;10.20;99.90;;;;;;2087066;28;20037;-70
2023/03/31 04:19:02;;;;;;;5.97;2.50;;;10.20;99.90;;;;;;2086754;28;20099;-70
2023/03/31 04:20:08;;;;;;;4.13;2.40;;;10.20;99.90;;;;;;2086822;28;20020;-71
2023/03/31 04:21:21;;;;;;;3.55;2.17;;;10.20;99.90;;;;;;2079381;28;20520;-70
2023/03/31 04:22:27;;;;;;;3.78;2.20;;;10.10;99.90;;;;;;2082927;28;20107;-70
2023/03/31 04:23:33;;;;;;;5.20;2.40;;;10.10;99.90;;;;;;2087183;28;20041;-70
2023/03/31 04:24:37;;;;;;;5.50;2.55;;;10.10;99.90;;;;;;2095517;28;20542;-70
2023/03/31 04:25:44;;;;;;;5.03;2.28;;;10.10;99.90;;;;;;2088631;28;20036;-71
2023/03/31 04:26:45;;;;;;;4.00;2.38;;;10.10;99.90;;;;;;2085086;28;20507;-69
2023/03/31 04:27:57;;;;;;;4.22;2.35;;;10.10;99.90;;;;;;2084891;28;20041;-71
2023/03/31 04:28:59;;;;;;;5.57;2.40;;;10.00;99.90;;;;;;2085558;28;20032;-72
2023/03/31 04:29:59;;;;;;;6.13;2.60;;;10.00;99.90;;;;;;2077119;28;20037;-71
2023/03/31 04:31:01;;;;;;;5.93;2.70;;;10.00;99.90;;;;;;2090357;28;20056;-72
2023/03/31 04:32:02;;;;;;;4.38;2.40;;;10.00;99.90;;;;;;2094455;28;20247;-72
2023/03/31 04:33:05;;;;;;;5.10;2.42;;;10.00;99.90;;;;;;2095027;28;20043;-72
2023/03/31 04:34:11;;;;;;;5.93;2.38;;;10.00;99.90;;;;;;2088977;28;20462;-72
2023/03/31 04:35:14;;;;;;;5.22;2.50;;;9.90;99.90;;;;;;2093063;28;20040;-72
2023/03/31 04:36:17;;;;;;;7.00;2.55;;;9.90;99.90;;;;;;2097226;28;20041;-71
2023/03/31 04:37:18;;;;;;;4.60;2.42;;;9.90;99.90;;;;;;2089357;28;20626;-71
2023/03/31 04:38:20;;;;;;;4.82;2.40;;;9.90;99.90;;;;;;2080580;28;20116;-72
2023/03/31 04:39:29;;;;;;;4.85;2.53;;;9.90;99.90;;;;;;2077819;28;20028;-72
2023/03/31 04:40:30;;;;;;;5.47;2.50;;;9.90;99.90;;;;;;2095649;28;20032;-71
2023/03/31 04:41:30;;;;;;;5.32;2.53;;;9.90;99.90;;;;;;2096442;28;20514;-71
2023/03/31 04:42:31;;;;;;;5.85;3.10;;;10.00;99.90;;;;;;2095034;28;20106;-72
2023/03/31 04:43:31;;;;;;;6.22;2.63;;;10.00;99.90;;;;;;2094455;28;20037;-69
2023/03/31 04:44:32;;;;;;;6.40;2.90;;;10.00;99.90;;;;;;2085289;28;20135;-70
2023/03/31 04:45:32;;;;;;;6.40;2.90;;;10.00;99.90;;;;;;2088485;28;20044;-71
2023/03/31 04:46:34;;;;;;;6.60;2.92;;;10.00;99.90;;;;;;2094864;28;20041;-67
2023/03/31 04:47:34;;;;;;;5.82;2.40;;;10.00;99.90;;;;;;2095659;28;20028;-67
2023/03/31 04:48:35;;;;;;;9.55;3.03;;;10.00;99.90;;;;;;2095620;28;20423;-67
2023/03/31 04:49:36;;;;;;;4.95;2.60;;;10.10;99.90;;;;;;2096170;28;20035;-69
2023/03/31 04:50:37;;;;;;;7.35;2.80;;;10.10;99.90;;;;;;2092571;28;20389;-67
2023/03/31 04:51:38;;;;;;;4.60;2.65;;;10.10;99.90;;;;;;2083052;28;20142;-67
2023/03/31 04:52:38;;;;;;;4.85;2.75;;;10.10;99.90;;;;;;2084174;28;20060;-75
2023/03/31 04:53:39;;;;;;;5.30;2.80;;;10.10;99.90;;;;;;2086323;28;20036;-69
2023/03/31 04:54:40;;;;;;;7.07;3.00;;;10.10;99.90;;;;;;2086392;28;20098;-69
2023/03/31 04:55:40;;;;;;;4.53;2.75;;;10.10;99.90;;;;;;2095269;28;20028;-69
2023/03/31 04:56:41;;;;;;;5.03;2.63;;;10.20;99.90;;;;;;2094817;28;20028;-68
2023/03/31 04:57:42;;;;;;;4.85;2.72;;;10.20;99.90;;;;;;2094614;28;20032;-70
2023/03/31 04:58:43;;;;;;;4.60;2.63;;;10.20;99.90;;;;;;2091710;28;20059;-69
2023/03/31 04:59:44;;;;;;;4.57;2.70;;;10.20;99.90;;;;;;2093740;28;20032;-75
2023/03/31 05:00:45;;;;;;;5.47;2.80;;;10.20;99.90;;;;;;2094008;28;20037;-69
2023/03/31 05:01:45;;;;;;;6.72;3.03;;;10.30;99.90;;;;;;2094139;28;20553;-69
2023/03/31 05:02:46;;;;;;;8.00;3.13;;;10.30;99.90;;;;;;2096758;28;20387;-78
2023/03/31 05:03:47;;;;;;;5.90;2.78;;;10.30;99.90;;;;;;2086317;28;20444;-83
2023/03/31 05:04:49;;;;;;;5.90;2.78;;;10.40;99.90;;;;;;2081453;28;20029;-67
2023/03/31 05:05:50;;;;;;;5.00;2.83;;;10.40;99.90;;;;;;2095167;28;20475;-74
2023/03/31 05:06:50;;;;;;;4.28;2.78;;;10.40;99.90;;;;;;2096446;28;20038;-73
2023/03/31 05:07:51;;;;;;;6.63;2.92;;;10.40;99.90;;;;;;2093648;28;20036;-75
2023/03/31 05:08:51;;;;;;;6.75;2.92;;;10.40;99.90;;;;;;2094791;28;20329;-72
2023/03/31 05:09:52;;;;;;;7.95;3.00;;;10.50;99.90;;;;;;2084680;28;20507;-72
2023/03/31 05:10:53;;;;;;;6.03;3.17;;;10.50;99.90;;;;;;2084601;28;20480;-73
2023/03/31 05:11:53;;;;;;;7.07;3.35;;;10.50;99.90;;;;;;2095930;28;20040;-72
2023/03/31 05:12:54;;;;;;;6.28;3.08;;;10.50;99.90;;;;;;2095273;28;20024;-76
2023/03/31 05:13:54;;;;;;;7.28;3.60;;;10.50;99.90;;;;;;2095171;28;20056;-75
2023/03/31 05:14:55;;;;;;;5.85;3.70;;;10.40;99.90;;;;;;2095180;28;20049;-74
2023/03/31 05:15:55;;;;;;;7.30;3.60;;;10.50;99.90;;;;;;2096092;28;20024;-72
2023/03/31 05:16:58;;;;;;;7.50;3.92;;;10.50;99.90;;;;;;2085194;28;20035;-72
2023/03/31 05:17:59;;;;;;;6.75;3.40;;;10.40;99.90;;;;;;2084987;28;20616;-74
2023/03/31 05:19:00;;;;;;;6.03;3.15;;;10.40;99.90;;;;;;2094031;28;20032;-72
2023/03/31 05:20:04;;;;;;;6.78;3.58;;;10.40;99.90;;;;;;2089998;28;20483;-78
2023/03/31 05:21:14;;;;;;;8.32;3.72;;;10.40;99.90;;;;;;2085319;28;20025;-74
2023/03/31 05:22:19;;;;;;;6.72;3.53;;;10.40;99.90;;;;;;2084323;28;20040;-72
2023/03/31 05:23:19;;;;;;;7.60;3.70;;;10.40;99.90;;;;;;2084313;28;20029;-72
2023/03/31 05:24:20;;;;;;;6.28;3.53;;;10.40;99.90;;;;;;2078269;28;20117;-77
2023/03/31 05:25:21;;;;;;;5.40;3.20;;;10.30;99.90;;;;;;2077648;28;20148;-75
2023/03/31 05:26:24;;;;;;;7.35;3.50;;;10.40;99.90;;;;;;2086244;28;20095;-74
2023/03/31 05:27:27;;;;;;;6.70;3.50;;;10.40;99.90;;;;;;2096875;28;20040;-73
2023/03/31 05:28:28;;;;;;;5.78;3.20;;;10.40;99.90;;;;;;2098036;28;20630;-72
2023/03/31 05:29:29;;;;;;;6.00;3.50;;;10.40;99.90;;;;;;2095792;28;20028;-72
2023/03/31 05:30:30;;;;;;;5.93;3.50;;;10.40;99.90;;;;;;2093598;28;20060;-73
2023/03/31 05:31:31;;;;;;;7.70;3.47;;;10.40;99.90;;;;;;2093702;28;20857;-69
2023/03/31 05:32:32;;;;;;;4.90;3.00;;;10.40;99.90;;;;;;2085220;28;20061;-70
2023/03/31 05:33:33;;;;;;;7.85;3.58;;;10.40;99.90;;;;;;2086115;28;20021;-71
2023/03/31 05:34:33;;;;;;;8.60;3.38;;;10.50;99.90;;;;;;2096698;28;20048;-72
2023/03/31 05:35:34;;;;;;;6.65;3.38;;;10.50;99.90;;;;;;2090902;28;20079;-71
2023/03/31 05:36:36;;;;;;;8.63;3.33;;;10.50;99.90;;;;;;2092217;28;20031;-72
2023/03/31 05:37:37;;;;;;;6.90;3.25;;;10.50;99.90;;;;;;2080846;28;20124;-72
2023/03/31 05:38:38;;;;;;;8.77;3.67;;;10.50;99.90;;;;;;2083873;28;20726;-69
2023/03/31 05:39:39;;;;;;;11.82;4.10;;;10.50;99.90;;;;;;2084062;28;20460;-77
2023/03/31 05:40:40;;;;;;;5.97;3.50;;;10.50;99.90;;;;;;2084513;28;20037;-76
2023/03/31 05:41:40;;;;;;;6.38;3.45;;;10.60;99.90;;;;;;2082739;28;20416;-77
2023/03/31 05:42:44;;;;;;;9.02;3.80;;;10.60;99.90;;;;;;2080637;28;20061;-73
2023/03/31 05:43:45;;;;;;;8.07;3.60;;;10.70;99.90;;;;;;2095912;28;20043;-72
2023/03/31 05:44:45;;;;;;;6.95;3.50;;;10.70;99.90;;;;;;2092168;28;20091;-72